createdAt,value
2022-10-19T00:01:23.247Z,6.90
2022-10-19T00:03:51.517Z,6.60
2022-10-19T00:06:20.147Z,7.03
2022-10-19T00:08:47.544Z,6.40
2022-10-19T00:11:15.012Z,6.80
2022-10-19T00:13:42.387Z,6.60
2022-10-19T00:16:11.560Z,6.30
2022-10-19T00:18:41.050Z,6.47
2022-10-19T00:21:09.175Z,6.40
2022-10-19T00:23:36.701Z,6.23
2022-10-19T00:26:04.468Z,6.47
2022-10-19T00:28:32.178Z,5.90
2022-10-19T00:31:03.718Z,5.93
2022-10-19T00:33:31.134Z,6.17
2022-10-19T00:35:59.988Z,5.50
2022-10-19T00:38:27.642Z,5.67
2022-10-19T00:40:55.023Z,5.50
2022-10-19T00:43:23.945Z,5.60
2022-10-19T00:45:51.535Z,6.07
2022-10-19T00:48:20.629Z,5.43
2022-10-19T00:50:48.776Z,6.30
2022-10-19T00:53:17.695Z,5.20
2022-10-19T00:55:45.168Z,5.70
2022-10-19T00:58:12.880Z,6.00
2022-10-19T01:00:40.481Z,5.70
2022-10-19T01:03:09.051Z,6.00
2022-10-19T01:05:36.830Z,5.53
2022-10-19T01:08:04.428Z,5.40
2022-10-19T01:10:35.492Z,5.83
2022-10-19T01:13:08.900Z,5.77
2022-10-19T01:15:41.678Z,5.00
2022-10-19T01:18:16.108Z,5.93
2022-10-19T01:20:52.783Z,5.40
2022-10-19T01:23:31.584Z,5.27
2022-10-19T01:26:09.232Z,5.20
2022-10-19T01:28:44.629Z,5.23
2022-10-19T01:31:18.926Z,5.13
2022-10-19T01:33:48.383Z,6.00
2022-10-19T01:36:20.070Z,5.20
2022-10-19T01:38:51.263Z,5.47
2022-10-19T01:41:19.793Z,5.30
2022-10-19T01:43:49.825Z,5.50
2022-10-19T01:46:20.606Z,5.50
2022-10-19T01:48:51.170Z,4.77
2022-10-19T01:51:19.742Z,5.37
2022-10-19T01:53:50.020Z,4.63
2022-10-19T01:56:18.554Z,5.07
2022-10-19T01:58:46.710Z,5.37
2022-10-19T02:01:15.920Z,4.97
2022-10-19T02:03:44.915Z,5.40
2022-10-19T02:06:12.687Z,5.13
2022-10-19T02:08:42.800Z,4.80
2022-10-19T02:11:10.253Z,5.00
2022-10-19T02:13:38.698Z,5.13
2022-10-19T02:16:08.603Z,4.87
2022-10-19T02:18:38.975Z,4.83
2022-10-19T02:21:09.323Z,5.30
2022-10-19T02:23:37.153Z,5.07
2022-10-19T02:26:04.810Z,5.10
2022-10-19T02:28:32.339Z,5.50
2022-10-19T02:31:00.368Z,5.27
2022-10-19T02:33:28.361Z,5.10
2022-10-19T02:35:56.213Z,4.80
2022-10-19T02:38:25.292Z,4.80
2022-10-19T02:40:55.321Z,4.50
2022-10-19T02:43:23.236Z,5.27
2022-10-19T02:45:54.259Z,4.80
2022-10-19T02:48:23.773Z,4.90
2022-10-19T02:50:51.937Z,5.30
2022-10-19T02:53:19.787Z,4.50
2022-10-19T02:55:49.996Z,5.43
2022-10-19T02:58:17.413Z,5.20
2022-10-19T03:00:44.793Z,4.70
2022-10-19T03:03:12.203Z,5.47
2022-10-19T03:05:39.579Z,5.07
2022-10-19T03:08:06.941Z,5.07
2022-10-19T03:10:34.387Z,5.33
2022-10-19T03:13:03.110Z,4.60
2022-10-19T03:15:30.505Z,4.73
2022-10-19T03:17:57.879Z,5.00
2022-10-19T03:20:25.350Z,4.33
2022-10-19T03:25:25.064Z,5.53
2022-10-19T03:27:52.459Z,5.27
2022-10-19T03:30:21.178Z,5.03
2022-10-19T03:32:48.602Z,4.50
2022-10-19T03:35:16.042Z,4.60
2022-10-19T03:37:43.452Z,4.50
2022-10-19T03:40:11.127Z,4.20
2022-10-19T03:42:38.501Z,4.60
2022-10-19T03:45:06.344Z,4.80
2022-10-19T03:47:35.799Z,5.00
2022-10-19T03:50:05.632Z,4.90
2022-10-19T03:52:33.055Z,5.10
2022-10-19T03:55:00.435Z,4.30
2022-10-19T03:57:27.836Z,4.50
2022-10-19T03:59:55.189Z,4.33
2022-10-19T04:02:22.559Z,4.30
2022-10-19T04:04:51.317Z,5.20
2022-10-19T04:07:18.754Z,4.70
2022-10-19T04:09:46.242Z,4.40
2022-10-19T04:12:13.597Z,4.67
2022-10-19T04:14:56.252Z,4.60
2022-10-19T04:17:24.639Z,4.57
2022-10-19T04:19:53.422Z,4.20
2022-10-19T04:22:20.830Z,4.60
2022-10-19T04:24:48.209Z,4.30
2022-10-19T04:27:15.579Z,4.30
2022-10-19T04:29:42.977Z,4.20
2022-10-19T04:32:10.371Z,4.30
2022-10-19T04:34:39.981Z,4.30
2022-10-19T04:37:09.070Z,4.40
2022-10-19T04:39:39.457Z,4.23
2022-10-19T04:42:06.858Z,4.10
2022-10-19T04:44:34.233Z,4.20
2022-10-19T04:47:01.599Z,4.07
2022-10-19T04:49:28.986Z,4.07
2022-10-19T04:51:56.368Z,4.40
2022-10-19T04:54:25.271Z,3.90
2022-10-19T04:56:53.752Z,4.20
2022-10-19T04:59:21.195Z,4.43
2022-10-19T05:01:48.571Z,5.17
2022-10-19T05:04:15.973Z,4.80
2022-10-19T05:06:43.476Z,4.60
2022-10-19T05:09:10.876Z,4.70
2022-10-19T05:11:39.575Z,5.37
2022-10-19T05:14:06.984Z,5.27
2022-10-19T05:16:34.404Z,5.50
2022-10-19T05:19:01.996Z,5.00
2022-10-19T05:21:29.816Z,5.37
2022-10-19T05:23:57.729Z,5.27
2022-10-19T05:26:25.672Z,5.90
2022-10-19T05:28:56.817Z,6.30
2022-10-19T05:31:26.449Z,6.40
2022-10-19T05:33:53.876Z,7.17
2022-10-19T05:36:22.734Z,15.10
2022-10-19T05:38:52.580Z,13.60
2022-10-19T05:41:20.563Z,14.90
2022-10-19T05:43:48.611Z,14.77
2022-10-19T05:46:18.504Z,15.70
2022-10-19T05:48:46.292Z,16.07
2022-10-19T05:51:14.819Z,15.10
2022-10-19T05:53:42.389Z,12.77
2022-10-19T05:56:10.694Z,12.50
2022-10-19T05:58:38.061Z,9.40
2022-10-19T06:01:05.581Z,6.93
2022-10-19T06:03:34.284Z,6.50
2022-10-19T06:06:03.354Z,6.27
2022-10-19T06:08:30.787Z,5.20
2022-10-19T06:11:05.949Z,5.07
2022-10-19T06:13:33.365Z,4.17
2022-10-19T06:16:00.774Z,4.40
2022-10-19T06:18:28.165Z,4.70
2022-10-19T06:20:56.898Z,4.40
2022-10-19T06:23:24.251Z,4.23
2022-10-19T06:25:51.617Z,4.10
2022-10-19T06:28:18.996Z,4.07
2022-10-19T06:30:46.468Z,4.33
2022-10-19T06:33:13.966Z,3.70
2022-10-19T06:35:42.948Z,4.10
2022-10-19T06:38:13.721Z,4.10
2022-10-19T06:40:41.248Z,4.00
2022-10-19T06:43:08.624Z,5.40
2022-10-19T06:45:38.061Z,5.43
2022-10-19T06:48:07.668Z,4.97
2022-10-19T06:50:35.483Z,5.87
2022-10-19T06:53:02.894Z,5.47
2022-10-19T06:55:31.609Z,4.70
2022-10-19T06:58:01.578Z,5.33
2022-10-19T07:00:29.192Z,5.17
2022-10-19T07:02:56.738Z,4.10
2022-10-19T07:05:24.148Z,3.80
2022-10-19T07:07:51.590Z,3.60
2022-10-19T07:10:19.172Z,3.73
2022-10-19T07:12:47.911Z,4.20
2022-10-19T07:15:15.410Z,4.00
2022-10-19T07:17:42.807Z,3.67
2022-10-19T07:20:11.593Z,3.67
2022-10-19T07:22:39.118Z,3.90
2022-10-19T07:25:06.791Z,3.80
2022-10-19T07:27:37.859Z,3.97
2022-10-19T07:30:07.309Z,3.30
2022-10-19T07:32:34.843Z,3.43
2022-10-19T07:35:02.243Z,3.43
2022-10-19T07:37:29.896Z,3.87
2022-10-19T07:39:57.305Z,3.60
2022-10-19T07:42:24.713Z,3.40
2022-10-19T07:44:52.135Z,4.20
2022-10-19T07:47:20.872Z,3.70
2022-10-19T07:49:48.288Z,3.33
2022-10-19T07:52:15.670Z,4.17
2022-10-19T07:54:43.059Z,4.10
2022-10-19T07:57:11.988Z,4.20
2022-10-19T07:59:39.368Z,3.63
2022-10-19T08:02:07.765Z,4.07
2022-10-19T08:07:26.012Z,4.10
2022-10-19T08:09:54.316Z,4.57
2022-10-19T08:12:21.925Z,4.47
2022-10-19T08:14:49.281Z,4.20
2022-10-19T08:17:17.636Z,4.30
2022-10-19T08:19:47.287Z,4.67
2022-10-19T08:22:15.016Z,4.43
2022-10-19T08:24:42.450Z,4.50
2022-10-19T08:27:09.822Z,4.50
2022-10-19T08:29:37.199Z,4.47
2022-10-19T08:32:04.628Z,4.13
2022-10-19T08:34:33.191Z,4.10
2022-10-19T08:37:06.826Z,5.40
2022-10-19T08:39:42.379Z,4.30
2022-10-19T08:42:14.035Z,4.73
2022-10-19T08:44:53.415Z,4.43
2022-10-19T08:47:27.295Z,4.80
2022-10-19T08:49:54.852Z,4.60
2022-10-19T08:52:25.188Z,4.67
2022-10-19T08:54:54.301Z,4.90
2022-10-19T08:57:31.231Z,5.47
2022-10-19T09:00:01.626Z,4.73
2022-10-19T09:02:38.040Z,5.47
2022-10-19T09:05:10.677Z,5.43
2022-10-19T09:07:45.849Z,4.77
2022-10-19T09:10:19.196Z,4.63
2022-10-19T09:12:49.002Z,5.40
2022-10-19T09:15:18.843Z,4.83
2022-10-19T09:17:46.237Z,5.37
2022-10-19T09:20:17.914Z,4.67
2022-10-19T09:22:47.394Z,5.30
2022-10-19T09:25:15.971Z,5.07
2022-10-19T09:27:45.491Z,4.70
2022-10-19T09:30:16.696Z,4.80
2022-10-19T09:32:44.101Z,4.80
2022-10-19T09:35:19.401Z,4.33
2022-10-19T09:37:49.563Z,4.40
2022-10-19T09:40:19.024Z,4.20
2022-10-19T09:42:46.419Z,4.40
2022-10-19T09:45:18.404Z,4.07
2022-10-19T09:47:48.784Z,4.00
2022-10-19T09:50:19.209Z,4.30
2022-10-19T09:52:48.326Z,4.17
2022-10-19T09:55:26.527Z,4.20
2022-10-19T09:58:00.458Z,3.80
2022-10-19T10:00:32.838Z,3.70
2022-10-19T10:03:00.351Z,3.30
2022-10-19T10:05:31.870Z,3.40
2022-10-19T10:08:00.629Z,3.30
2022-10-19T10:10:30.562Z,3.43
2022-10-19T10:12:58.895Z,3.67
2022-10-19T10:15:27.509Z,3.10
2022-10-19T10:17:56.696Z,3.53
2022-10-19T10:20:27.690Z,3.40
2022-10-19T10:22:57.928Z,3.30
2022-10-19T10:25:28.408Z,3.50
2022-10-19T10:27:58.192Z,3.03
2022-10-19T10:30:25.875Z,3.60
2022-10-19T10:32:54.795Z,3.33
2022-10-19T10:35:24.176Z,3.00
2022-10-19T10:37:51.952Z,2.97
2022-10-19T10:40:23.517Z,2.70
2022-10-19T10:42:53.543Z,2.80
2022-10-19T10:45:23.640Z,3.00
2022-10-19T10:47:51.560Z,3.00
2022-10-19T10:50:21.488Z,3.10
2022-10-19T10:52:59.643Z,3.00
2022-10-19T10:55:27.597Z,2.80
2022-10-19T10:58:06.850Z,3.00
2022-10-19T11:00:35.402Z,3.60
2022-10-19T11:03:07.692Z,3.37
2022-10-19T11:05:37.346Z,3.30
2022-10-19T11:08:08.005Z,3.10
2022-10-19T11:10:37.374Z,3.60
2022-10-19T11:13:11.724Z,2.90
2022-10-19T11:15:45.394Z,2.70
2022-10-19T11:18:15.796Z,2.83
2022-10-19T11:20:45.899Z,2.83
2022-10-19T11:23:16.104Z,3.10
2022-10-19T11:25:49.407Z,3.00
2022-10-19T11:28:21.976Z,3.27
2022-10-19T11:30:54.570Z,2.77
2022-10-19T11:33:26.010Z,3.13
2022-10-19T11:35:54.062Z,3.03
2022-10-19T11:38:37.776Z,3.43
2022-10-19T11:41:17.712Z,3.30
2022-10-19T11:43:50.629Z,2.97
2022-10-19T11:46:21.825Z,2.70
2022-10-19T11:49:01.592Z,2.70
2022-10-19T11:51:33.429Z,3.10
2022-10-19T11:54:11.175Z,2.93
2022-10-19T11:57:02.475Z,2.97
2022-10-19T11:59:41.377Z,2.90
2022-10-19T12:02:20.541Z,2.80
2022-10-19T12:04:52.429Z,3.07
2022-10-19T12:07:33.029Z,2.90
2022-10-19T12:10:04.369Z,3.07
2022-10-19T12:12:34.433Z,2.70
2022-10-19T12:15:06.487Z,3.00
2022-10-19T12:17:37.026Z,3.40
2022-10-19T12:20:07.633Z,3.10
2022-10-19T12:22:37.256Z,3.30
2022-10-19T12:25:04.975Z,3.10
2022-10-19T12:27:35.027Z,3.40
2022-10-19T12:30:05.771Z,3.30
2022-10-19T12:32:37.475Z,3.23
2022-10-19T12:35:09.383Z,3.40
2022-10-19T12:37:41.289Z,2.57
2022-10-19T12:40:12.358Z,3.33
2022-10-19T12:42:44.316Z,3.10
2022-10-19T12:45:20.068Z,2.83
2022-10-19T12:48:06.191Z,3.40
2022-10-19T12:50:48.490Z,3.53
2022-10-19T12:53:23.961Z,2.90
2022-10-19T12:55:59.162Z,2.73
2022-10-19T12:58:26.623Z,3.00
2022-10-19T13:01:02.938Z,3.40
2022-10-19T13:03:32.095Z,2.87
2022-10-19T13:06:00.218Z,3.33
2022-10-19T13:08:29.868Z,3.07
2022-10-19T13:11:08.305Z,3.30
2022-10-19T13:13:51.655Z,3.07
2022-10-19T13:16:49.247Z,2.60
2022-10-19T13:19:22.342Z,2.77
2022-10-19T13:21:54.080Z,2.70
2022-10-19T13:24:36.351Z,2.40
2022-10-19T13:27:22.334Z,3.07
2022-10-19T13:29:49.761Z,2.27
2022-10-19T13:32:33.701Z,3.20
2022-10-19T13:35:16.217Z,2.87
2022-10-19T13:37:45.659Z,2.90
2022-10-19T13:40:23.687Z,2.73
2022-10-19T13:42:58.547Z,2.70
2022-10-19T13:45:26.098Z,2.50
2022-10-19T13:47:57.863Z,2.57
2022-10-19T13:50:35.222Z,2.70
2022-10-19T13:53:08.475Z,2.60
2022-10-19T13:55:54.334Z,2.63
2022-10-19T13:58:56.420Z,2.40
2022-10-19T14:01:28.053Z,2.70
2022-10-19T14:04:01.891Z,2.33
2022-10-19T14:06:33.996Z,2.83
2022-10-19T14:09:14.223Z,2.47
2022-10-19T14:11:42.225Z,2.57
2022-10-19T14:14:16.775Z,3.20
2022-10-19T14:16:51.817Z,2.80
2022-10-19T14:19:26.676Z,2.80
2022-10-19T14:21:55.262Z,2.70
2022-10-19T14:24:27.426Z,2.90
2022-10-19T14:26:55.500Z,2.77
2022-10-19T14:29:22.973Z,3.13
2022-10-19T14:31:50.428Z,3.27
2022-10-19T14:34:17.855Z,2.73
2022-10-19T14:36:47.104Z,2.90
2022-10-19T14:39:25.010Z,2.83
2022-10-19T14:41:54.610Z,2.70
2022-10-19T14:44:28.763Z,2.93
2022-10-19T14:46:56.360Z,3.20
2022-10-19T14:49:23.828Z,3.80
2022-10-19T14:51:52.974Z,3.50
2022-10-19T14:54:24.131Z,3.20
2022-10-19T14:56:54.559Z,3.50
2022-10-19T14:59:25.404Z,3.30
2022-10-19T15:01:53.944Z,2.90
2022-10-19T15:04:22.503Z,3.23
2022-10-19T15:06:49.983Z,3.07
2022-10-19T15:09:30.460Z,3.10
2022-10-19T15:12:11.087Z,2.83
2022-10-19T15:14:39.051Z,2.73
2022-10-19T15:17:21.371Z,3.30
2022-10-19T15:19:48.803Z,3.23
2022-10-19T15:22:17.711Z,2.67
2022-10-19T15:24:58.968Z,3.00
2022-10-19T15:27:31.936Z,2.67
2022-10-19T15:30:00.301Z,3.20
2022-10-19T15:32:31.831Z,2.60
2022-10-19T15:34:59.289Z,2.97
2022-10-19T15:39:59.315Z,2.50
2022-10-19T15:42:37.298Z,2.80
2022-10-19T15:45:05.545Z,2.90
2022-10-19T15:47:33.225Z,2.80
2022-10-19T15:50:01.609Z,2.53
2022-10-19T15:52:29.591Z,2.70
2022-10-19T15:54:57.575Z,2.70
2022-10-19T15:57:26.396Z,2.80
2022-10-19T15:59:55.704Z,2.97
2022-10-19T16:02:25.032Z,2.53
2022-10-19T16:04:53.364Z,2.43
2022-10-19T16:07:24.319Z,3.60
2022-10-19T16:09:51.687Z,2.77
2022-10-19T16:12:19.057Z,3.20
2022-10-19T16:14:46.490Z,2.90
2022-10-19T16:17:15.730Z,3.17
2022-10-19T16:19:43.135Z,3.17
2022-10-19T16:22:10.525Z,3.10
2022-10-19T16:24:37.951Z,2.97
2022-10-19T16:27:05.804Z,3.40
2022-10-19T16:29:33.196Z,2.80
2022-10-19T16:32:01.089Z,3.50
2022-10-19T16:34:29.822Z,3.67
2022-10-19T16:36:57.222Z,3.10
2022-10-19T16:39:25.553Z,3.50
2022-10-19T16:41:52.984Z,3.70
2022-10-19T16:44:20.424Z,3.57
2022-10-19T16:46:47.870Z,3.63
2022-10-19T16:49:15.297Z,3.57
2022-10-19T16:51:44.067Z,3.27
2022-10-19T16:54:12.090Z,3.10
2022-10-19T16:56:44.512Z,3.60
2022-10-19T16:59:12.992Z,3.90
2022-10-19T17:01:40.543Z,3.63
2022-10-19T17:04:08.237Z,3.60
2022-10-19T17:06:35.647Z,3.90
2022-10-19T17:11:52.320Z,3.57
2022-10-19T17:14:19.766Z,3.77
2022-10-19T17:16:47.159Z,3.30
2022-10-19T17:19:14.551Z,3.87
2022-10-19T17:21:42.348Z,4.20
2022-10-19T17:24:18.418Z,4.00
2022-10-19T17:26:49.280Z,3.87
2022-10-19T17:29:16.709Z,3.77
2022-10-19T17:31:44.508Z,4.10
2022-10-19T17:34:12.160Z,3.70
2022-10-19T17:39:15.221Z,3.50
2022-10-19T17:41:42.799Z,3.80
2022-10-19T17:44:10.247Z,4.00
2022-10-19T17:46:37.636Z,4.13
2022-10-19T17:49:05.498Z,3.63
2022-10-19T17:51:33.954Z,3.70
2022-10-19T17:54:02.698Z,4.00
2022-10-19T17:56:31.551Z,3.87
2022-10-19T17:58:59.037Z,3.57
2022-10-19T18:01:26.793Z,3.40
2022-10-19T18:03:54.182Z,4.17
2022-10-19T18:06:23.169Z,3.50
2022-10-19T18:08:51.855Z,4.03
2022-10-19T18:11:20.054Z,4.10
2022-10-19T18:13:49.267Z,5.00
2022-10-19T18:16:17.966Z,4.20
2022-10-19T18:18:48.483Z,4.80
2022-10-19T18:21:16.924Z,3.90
2022-10-19T18:23:44.298Z,4.57
2022-10-19T18:26:13.461Z,4.40
2022-10-19T18:28:41.220Z,6.57
2022-10-19T18:31:10.769Z,7.03
2022-10-19T18:33:38.644Z,4.33
2022-10-19T18:36:07.185Z,3.47
2022-10-19T18:38:34.727Z,4.50
2022-10-19T18:41:02.502Z,4.17
2022-10-19T18:43:30.016Z,10.43
2022-10-19T18:45:58.263Z,9.40
2022-10-19T18:48:27.603Z,5.60
2022-10-19T18:50:55.183Z,4.60
2022-10-19T18:53:23.017Z,4.40
2022-10-19T18:55:57.716Z,4.90
2022-10-19T18:58:25.290Z,3.97
2022-10-19T19:01:02.606Z,3.60
2022-10-19T19:03:31.371Z,4.40
2022-10-19T19:05:59.927Z,4.20
2022-10-19T19:08:27.484Z,3.80
2022-10-19T19:10:54.990Z,3.60
2022-10-19T19:13:22.400Z,3.43
2022-10-19T19:15:57.053Z,3.60
2022-10-19T19:18:24.457Z,3.43
2022-10-19T19:20:53.234Z,3.23
2022-10-19T19:23:20.633Z,3.13
2022-10-19T19:25:48.050Z,3.50
2022-10-19T19:28:15.499Z,3.60
2022-10-19T19:30:43.412Z,3.63
2022-10-19T19:33:10.838Z,3.70
2022-10-19T19:35:42.589Z,3.53
2022-10-19T19:38:11.782Z,3.50
2022-10-19T19:40:40.284Z,3.20
2022-10-19T19:43:07.738Z,3.30
2022-10-19T19:45:35.364Z,3.67
2022-10-19T19:48:02.770Z,3.83
2022-10-19T19:50:30.167Z,4.00
2022-10-19T19:52:57.547Z,3.80
2022-10-19T19:55:26.275Z,3.53
2022-10-19T19:57:54.324Z,3.60
2022-10-19T20:00:22.032Z,3.20
2022-10-19T20:02:52.083Z,3.47
2022-10-19T20:05:19.491Z,3.07
2022-10-19T20:07:46.876Z,3.50
2022-10-19T20:10:15.986Z,3.27
2022-10-19T20:12:44.817Z,3.23
2022-10-19T20:15:12.604Z,3.27
2022-10-19T20:17:40.108Z,3.00
2022-10-19T20:20:08.738Z,3.20
2022-10-19T20:22:36.335Z,3.60
2022-10-19T20:25:03.771Z,3.50
2022-10-19T20:27:31.541Z,3.30
2022-10-19T20:30:00.264Z,2.90
2022-10-19T20:32:27.710Z,3.30
2022-10-19T20:34:55.358Z,3.67
2022-10-19T20:37:22.908Z,3.90
2022-10-19T20:39:50.614Z,4.30
2022-10-19T20:42:18.905Z,3.50
2022-10-19T20:44:46.303Z,3.20
2022-10-19T20:47:15.195Z,3.63
2022-10-19T20:49:42.547Z,3.43
2022-10-19T20:52:10.018Z,3.43
2022-10-19T20:54:37.428Z,3.77
2022-10-19T20:57:04.875Z,3.73
2022-10-19T20:59:33.306Z,3.70
2022-10-19T21:02:00.728Z,3.80
2022-10-19T21:04:29.551Z,3.90
2022-10-19T21:06:57.244Z,3.60
2022-10-19T21:09:25.884Z,3.50
2022-10-19T21:11:53.549Z,3.90
2022-10-19T21:14:25.202Z,3.40
2022-10-19T21:16:56.413Z,3.80
2022-10-19T21:19:25.192Z,3.87
2022-10-19T21:21:56.092Z,4.07
2022-10-19T21:24:24.464Z,4.57
2022-10-19T21:29:24.377Z,4.30
2022-10-19T21:31:53.236Z,4.00
2022-10-19T21:34:23.339Z,3.80
2022-10-19T21:36:50.975Z,4.30
2022-10-19T21:39:19.772Z,3.93
2022-10-19T21:41:47.558Z,4.13
2022-10-19T21:44:15.236Z,4.40
2022-10-19T21:46:43.874Z,4.07
2022-10-19T21:49:11.924Z,3.90
2022-10-19T21:51:40.956Z,4.23
2022-10-19T21:54:08.929Z,4.10
2022-10-19T21:56:37.682Z,4.70
2022-10-19T21:59:05.469Z,4.33
2022-10-19T22:01:38.519Z,4.50
2022-10-19T22:04:09.444Z,4.37
2022-10-19T22:06:37.362Z,4.40
2022-10-19T22:09:05.964Z,4.50
2022-10-19T22:11:33.430Z,4.80
2022-10-19T22:14:02.990Z,4.20
2022-10-19T22:16:30.936Z,4.27
2022-10-19T22:18:58.389Z,4.57
2022-10-19T22:21:27.071Z,4.30
2022-10-19T22:23:55.986Z,4.67
2022-10-19T22:26:24.803Z,4.40
2022-10-19T22:28:52.238Z,4.80
2022-10-19T22:31:21.176Z,4.67
2022-10-19T22:33:48.572Z,5.10
2022-10-19T22:36:16.091Z,5.00
2022-10-19T22:38:43.458Z,5.30
2022-10-19T22:41:10.902Z,5.40
2022-10-19T22:43:38.323Z,6.20
2022-10-19T22:46:05.700Z,5.77
2022-10-19T22:48:34.472Z,5.83
2022-10-19T22:51:01.852Z,5.63
2022-10-19T22:53:29.181Z,6.17
2022-10-19T22:55:56.535Z,5.60
2022-10-19T22:58:23.937Z,5.40
2022-10-19T23:01:02.003Z,6.00
2022-10-19T23:03:29.409Z,5.80
2022-10-19T23:05:58.123Z,5.87
2022-10-19T23:08:25.883Z,6.03
2022-10-19T23:10:53.303Z,6.20
2022-10-19T23:13:20.717Z,5.50
2022-10-19T23:15:48.145Z,6.03
2022-10-19T23:18:16.151Z,6.00
2022-10-19T23:20:43.932Z,6.17
2022-10-19T23:23:12.693Z,5.60
2022-10-19T23:25:40.078Z,5.90
2022-10-19T23:28:07.469Z,5.30
2022-10-19T23:30:34.835Z,5.80
2022-10-19T23:33:02.240Z,5.73
2022-10-19T23:35:29.739Z,5.40
2022-10-19T23:37:57.159Z,6.40
2022-10-19T23:40:25.951Z,5.60
2022-10-19T23:42:53.335Z,6.07
2022-10-19T23:45:20.738Z,5.97
2022-10-19T23:47:48.098Z,6.00
2022-10-19T23:50:15.592Z,6.10
2022-10-19T23:52:42.978Z,6.20
2022-10-19T23:55:10.437Z,6.10
2022-10-19T23:57:39.319Z,5.47
